sensor_id;sensor_type;location;lat;lon;timestamp;temperature;humidity
70076;DHT22;63241;51.056;3.698;2023-08-12T03:57:28;20.00;99.90
70076;DHT22;63241;51.056;3.698;2023-08-12T04:00:14;19.90;99.90
70076;DHT22;63241;51.056;3.698;2023-08-12T04:03:01;19.80;99.90
70076;DHT22;63241;51.056;3.698;2023-08-12T04:06:26;19.90;99.90
70076;DHT22;63241;51.056;3.698;2023-08-12T04:09:37;19.80;99.90
70076;DHT22;63241;51.056;3.698;2023-08-12T04:12:23;19.80;99.90
70076;DHT22;63241;51.056;3.698;2023-08-12T04:15:16;19.80;99.90
70076;DHT22;63241;51.056;3.698;2023-08-12T04:22:10;19.80;99.90
70076;DHT22;63241;51.056;3.698;2023-08-12T04:24:56;19.80;99.90
70076;DHT22;63241;51.056;3.698;2023-08-12T04:27:42;19.80;99.90
70076;DHT22;63241;51.056;3.698;2023-08-12T04:30:29;19.80;99.90
70076;DHT22;63241;51.056;3.698;2023-08-12T04:33:50;19.80;99.90
70076;DHT22;63241;51.056;3.698;2023-08-12T04:36:45;19.90;99.90
70076;DHT22;63241;51.056;3.698;2023-08-12T04:39:31;19.90;99.90
70076;DHT22;63241;51.056;3.698;2023-08-12T04:42:17;19.90;99.90
70076;DHT22;63241;51.056;3.698;2023-08-12T04:51:56;19.90;99.90
70076;DHT22;63241;51.056;3.698;2023-08-12T04:54:43;19.80;99.90
70076;DHT22;63241;51.056;3.698;2023-08-12T04:57:29;19.90;99.90
70076;DHT22;63241;51.056;3.698;2023-08-12T05:00:52;19.90;99.90
70076;DHT22;63241;51.056;3.698;2023-08-12T05:03:47;19.90;99.90
70076;DHT22;63241;51.056;3.698;2023-08-12T05:06:33;19.90;99.90
70076;DHT22;63241;51.056;3.698;2023-08-12T05:09:19;19.90;99.90
70076;DHT22;63241;51.056;3.698;2023-08-12T05:12:23;19.90;99.90
70076;DHT22;63241;51.056;3.698;2023-08-12T10:20:50;44.90;34.30
70076;DHT22;63241;51.056;3.698;2023-08-12T10:23:37;44.90;35.40
70076;DHT22;63241;51.056;3.698;2023-08-12T10:26:24;45.60;33.90
70076;DHT22;63241;51.056;3.698;2023-08-12T10:29:30;46.40;31.80
70076;DHT22;63241;51.056;3.698;2023-08-12T10:32:33;45.80;33.10
70076;DHT22;63241;51.056;3.698;2023-08-12T10:35:19;45.90;31.60
70076;DHT22;63241;51.056;3.698;2023-08-12T10:38:06;47.10;33.00
70076;DHT22;63241;51.056;3.698;2023-08-12T10:44:52;46.80;32.30
70076;DHT22;63241;51.056;3.698;2023-08-12T10:47:43;47.40;30.00
70076;DHT22;63241;51.056;3.698;2023-08-12T10:50:32;47.10;30.60
70076;DHT22;63241;51.056;3.698;2023-08-12T10:53:26;46.50;29.60
70076;DHT22;63241;51.056;3.698;2023-08-12T11:00:06;46.00;29.50
70076;DHT22;63241;51.056;3.698;2023-08-12T11:02:55;46.20;29.10
70076;DHT22;63241;51.056;3.698;2023-08-12T11:05:42;45.80;29.30
70076;DHT22;63241;51.056;3.698;2023-08-12T11:12:33;45.30;31.50
70076;DHT22;63241;51.056;3.698;2023-08-12T11:15:30;44.50;30.50
70076;DHT22;63241;51.056;3.698;2023-08-12T11:18:20;43.60;31.60
70076;DHT22;63241;51.056;3.698;2023-08-12T11:21:06;43.60;31.30
70076;DHT22;63241;51.056;3.698;2023-08-12T11:27:46;45.00;30.00
70076;DHT22;63241;51.056;3.698;2023-08-12T11:30:36;43.40;27.60
70076;DHT22;63241;51.056;3.698;2023-08-12T11:33:24;42.80;29.00
70076;DHT22;63241;51.056;3.698;2023-08-12T11:40:15;40.30;32.90
70076;DHT22;63241;51.056;3.698;2023-08-12T11:43:02;41.20;34.30
70076;DHT22;63241;51.056;3.698;2023-08-12T11:45:48;42.10;32.90
70076;DHT22;63241;51.056;3.698;2023-08-12T11:48:34;42.70;30.20
70076;DHT22;63241;51.056;3.698;2023-08-12T11:51:47;43.00;30.60
70076;DHT22;63241;51.056;3.698;2023-08-12T11:54:44;43.20;29.80
70076;DHT22;63241;51.056;3.698;2023-08-12T11:57:48;43.70;30.10
70076;DHT22;63241;51.056;3.698;2023-08-12T12:00:37;43.20;29.70
70076;DHT22;63241;51.056;3.698;2023-08-12T12:03:27;41.20;30.60
70076;DHT22;63241;51.056;3.698;2023-08-12T12:06:42;39.90;34.30
70076;DHT22;63241;51.056;3.698;2023-08-12T12:10:13;40.30;33.50
70076;DHT22;63241;51.056;3.698;2023-08-12T12:13:01;40.90;33.20
70076;DHT22;63241;51.056;3.698;2023-08-12T12:15:47;41.00;30.40
70076;DHT22;63241;51.056;3.698;2023-08-12T12:18:35;41.10;32.30
70076;DHT22;63241;51.056;3.698;2023-08-12T12:25:19;40.00;33.30
70076;DHT22;63241;51.056;3.698;2023-08-12T12:28:05;40.10;34.00
70076;DHT22;63241;51.056;3.698;2023-08-12T12:30:51;40.80;30.60
70076;DHT22;63241;51.056;3.698;2023-08-12T12:37:44;41.30;32.10
70076;DHT22;63241;51.056;3.698;2023-08-12T12:40:31;38.90;32.70
70076;DHT22;63241;51.056;3.698;2023-08-12T12:43:18;37.00;34.80
70076;DHT22;63241;51.056;3.698;2023-08-12T12:46:04;36.50;36.90
70076;DHT22;63241;51.056;3.698;2023-08-12T12:49:03;37.00;37.60
70076;DHT22;63241;51.056;3.698;2023-08-12T12:51:59;36.50;35.10
70076;DHT22;63241;51.056;3.698;2023-08-12T12:54:46;36.50;36.80
70076;DHT22;63241;51.056;3.698;2023-08-12T12:57:33;36.50;35.30
70076;DHT22;63241;51.056;3.698;2023-08-12T13:00:19;36.80;36.80
70076;DHT22;63241;51.056;3.698;2023-08-12T13:03:31;37.60;34.30
70076;DHT22;63241;51.056;3.698;2023-08-12T13:06:42;38.30;34.30
70076;DHT22;63241;51.056;3.698;2023-08-12T13:09:29;39.00;31.60
70076;DHT22;63241;51.056;3.698;2023-08-12T13:12:16;38.50;32.60
70076;DHT22;63241;51.056;3.698;2023-08-12T13:18:57;38.10;34.10
70076;DHT22;63241;51.056;3.698;2023-08-12T13:21:44;37.70;32.00
70076;DHT22;63241;51.056;3.698;2023-08-12T13:24:30;37.50;34.10
70076;DHT22;63241;51.056;3.698;2023-08-12T13:27:16;37.70;36.20
70076;DHT22;63241;51.056;3.698;2023-08-12T13:33:55;38.10;34.00
70076;DHT22;63241;51.056;3.698;2023-08-12T13:36:42;38.10;31.90
70076;DHT22;63241;51.056;3.698;2023-08-12T13:39:28;37.90;33.60
70076;DHT22;63241;51.056;3.698;2023-08-12T13:46:22;37.50;33.90
70076;DHT22;63241;51.056;3.698;2023-08-12T13:49:08;37.30;35.00
70076;DHT22;63241;51.056;3.698;2023-08-12T13:51:54;36.90;36.50
70076;DHT22;63241;51.056;3.698;2023-08-12T13:54:40;36.20;35.50
70076;DHT22;63241;51.056;3.698;2023-08-12T13:57:56;36.10;34.90
70076;DHT22;63241;51.056;3.698;2023-08-12T14:00:59;35.40;35.00
70076;DHT22;63241;51.056;3.698;2023-08-12T14:03:46;33.90;36.40
70076;DHT22;63241;51.056;3.698;2023-08-12T14:06:32;33.20;38.10
70076;DHT22;63241;51.056;3.698;2023-08-12T14:13:26;32.00;40.90
70076;DHT22;63241;51.056;3.698;2023-08-12T14:16:12;31.10;43.10
70076;DHT22;63241;51.056;3.698;2023-08-12T14:18:59;31.00;43.40
70076;DHT22;63241;51.056;3.698;2023-08-12T14:21:45;30.60;42.80
70076;DHT22;63241;51.056;3.698;2023-08-12T14:31:11;29.40;43.10
70076;DHT22;63241;51.056;3.698;2023-08-12T14:33:57;28.90;44.50
70076;DHT22;63241;51.056;3.698;2023-08-12T14:40:50;28.80;45.40
70076;DHT22;63241;51.056;3.698;2023-08-12T14:43:37;28.40;45.80
70076;DHT22;63241;51.056;3.698;2023-08-12T14:46:23;28.20;46.70
70076;DHT22;63241;51.056;3.698;2023-08-12T14:49:09;28.10;47.40
70076;DHT22;63241;51.056;3.698;2023-08-12T14:52:25;28.00;47.70
70076;DHT22;63241;51.056;3.698;2023-08-12T14:55:09;27.80;48.20
70076;DHT22;63241;51.056;3.698;2023-08-12T14:57:55;27.60;49.20
70076;DHT22;63241;51.056;3.698;2023-08-12T15:00:41;27.30;48.30
70076;DHT22;63241;51.056;3.698;2023-08-12T15:07:39;27.00;47.90
70076;DHT22;63241;51.056;3.698;2023-08-12T15:10:25;27.00;49.50
70076;DHT22;63241;51.056;3.698;2023-08-12T15:13:13;27.00;50.00
70076;DHT22;63241;51.056;3.698;2023-08-12T15:15:59;26.90;48.30
70076;DHT22;63241;51.056;3.698;2023-08-12T15:22:32;26.70;48.40
70076;DHT22;63241;51.056;3.698;2023-08-12T15:25:18;26.30;49.60
70076;DHT22;63241;51.056;3.698;2023-08-12T15:28:05;26.10;50.00
70076;DHT22;63241;51.056;3.698;2023-08-12T15:37:03;26.20;50.60
70076;DHT22;63241;51.056;3.698;2023-08-12T15:39:49;26.20;49.80
70076;DHT22;63241;51.056;3.698;2023-08-12T15:42:35;26.20;50.70
70076;DHT22;63241;51.056;3.698;2023-08-12T23:52:15;17.10;99.90
70076;DHT22;63241;51.056;3.698;2023-08-12T23:58:56;17.10;99.90
